Time;durP1;ratioP1;P1;durP2;ratioP2;P2;SDS_P1;SDS_P2;PMS_P1;PMS_P2;Temp;Humidity;BMP_temperature;BMP_pressure;BME280_temperature;BME280_humidity;BME280_pressure;Samples;Min_cycle;Max_cycle;Signal;HPM_P1;HPM_P2
2023/04/30 00:01:52;;;;;;;4.07;1.70;;;8.50;99.90;;;;;;4984599;28;20057;-85
2023/04/30 00:04:18;;;;;;;4.22;2.10;;;8.50;99.90;;;;;;4985248;28;20057;-82
2023/04/30 00:06:44;;;;;;;13.75;2.45;;;8.40;99.90;;;;;;4985275;28;20050;-85
2023/04/30 00:09:09;;;;;;;3.50;1.05;;;8.40;99.90;;;;;;4985436;28;20500;-84
2023/04/30 00:11:35;;;;;;;1.20;0.95;;;8.40;99.90;;;;;;4984139;28;20046;-84
2023/04/30 00:14:01;;;;;;;4.90;1.27;;;8.30;99.90;;;;;;4984688;28;20434;-84
2023/04/30 00:16:26;;;;;;;2.42;1.50;;;8.40;99.90;;;;;;4983696;28;20286;-84
2023/04/30 00:18:52;;;;;;;2.70;1.00;;;8.30;99.90;;;;;;4984901;28;20128;-85
2023/04/30 00:21:18;;;;;;;4.35;1.73;;;8.30;99.90;;;;;;4985849;28;20046;-84
2023/04/30 00:23:43;;;;;;;4.88;1.42;;;8.20;99.90;;;;;;4983938;28;20042;-85
2023/04/30 00:26:09;;;;;;;1.95;1.25;;;8.20;99.90;;;;;;4985052;28;20047;-84
2023/04/30 00:28:35;;;;;;;3.80;1.80;;;8.20;99.90;;;;;;4985459;28;20053;-84
2023/04/30 00:31:01;;;;;;;0.95;0.75;;;8.20;99.90;;;;;;4982776;28;20041;-83
2023/04/30 00:33:27;;;;;;;2.22;1.05;;;8.20;99.90;;;;;;4999585;28;20058;-85
2023/04/30 00:35:52;;;;;;;3.55;1.30;;;8.30;99.90;;;;;;4985435;28;20034;-85
2023/04/30 00:38:18;;;;;;;3.30;1.63;;;8.30;99.90;;;;;;4985221;28;20078;-83
2023/04/30 00:40:45;;;;;;;2.55;1.52;;;8.20;99.90;;;;;;4983695;28;20050;-86
2023/04/30 00:43:10;;;;;;;7.50;2.53;;;8.20;99.90;;;;;;4985358;28;20543;-85
2023/04/30 00:45:36;;;;;;;9.15;3.05;;;8.20;99.90;;;;;;4984102;28;20078;-85
2023/04/30 00:48:02;;;;;;;4.97;1.92;;;8.20;99.90;;;;;;4984870;28;20043;-82
2023/04/30 00:50:28;;;;;;;2.00;1.23;;;8.20;99.90;;;;;;4985295;28;20504;-85
2023/04/30 00:52:54;;;;;;;2.97;1.17;;;8.20;99.90;;;;;;4999750;28;20556;-81
2023/04/30 00:55:20;;;;;;;5.60;2.30;;;8.10;99.90;;;;;;4985251;28;20121;-86
2023/04/30 00:57:46;;;;;;;3.10;1.70;;;8.10;99.90;;;;;;4999650;28;20050;-86
2023/04/30 01:00:12;;;;;;;4.10;2.58;;;8.10;99.90;;;;;;4983978;28;20084;-85
2023/04/30 01:02:39;;;;;;;2.60;1.50;;;8.10;99.90;;;;;;4984293;28;20060;-86
2023/04/30 01:05:05;;;;;;;3.47;1.30;;;8.10;99.90;;;;;;4982649;28;20416;-85
2023/04/30 01:07:32;;;;;;;3.83;2.40;;;8.10;99.90;;;;;;4984057;28;20137;-85
2023/04/30 01:09:58;;;;;;;2.47;2.28;;;8.10;99.90;;;;;;4983254;28;20042;-84
2023/04/30 01:12:46;;;;;;;6.63;1.83;;;8.10;99.90;;;;;;4984813;28;20093;-82
2023/04/30 01:15:15;;;;;;;1.90;1.80;;;8.10;99.90;;;;;;4998265;28;20054;-83
2023/04/30 01:17:51;;;;;;;2.53;1.60;;;8.10;99.90;;;;;;4984394;28;20058;-84
2023/04/30 01:20:18;;;;;;;2.03;1.60;;;8.20;99.90;;;;;;4982900;28;20117;-81
2023/04/30 01:23:29;;;;;;;2.42;1.40;;;8.20;99.90;;;;;;4983288;28;20050;-85
2023/04/30 01:26:28;;;;;;;2.88;1.50;;;8.20;99.90;;;;;;4983889;28;20062;-82
2023/04/30 01:28:58;;;;;;;3.22;1.40;;;8.20;99.90;;;;;;4984408;28;20038;-84
2023/04/30 01:31:23;;;;;;;2.15;1.67;;;8.20;99.90;;;;;;4983738;28;20543;-85
2023/04/30 01:33:49;;;;;;;8.98;1.50;;;8.20;99.90;;;;;;4988696;28;20327;-84
2023/04/30 01:36:25;;;;;;;3.05;1.48;;;8.20;99.90;;;;;;4988085;28;20042;-82
2023/04/30 01:39:14;;;;;;;4.18;1.40;;;8.30;99.90;;;;;;4988122;28;20046;-85
2023/04/30 01:42:12;;;;;;;1.35;1.10;;;8.30;99.90;;;;;;4988025;28;20042;-84
2023/04/30 01:45:02;;;;;;;4.95;1.92;;;8.30;99.90;;;;;;4987293;28;20144;-85
2023/04/30 01:47:48;;;;;;;2.22;1.02;;;8.30;99.90;;;;;;4987894;28;20509;-83
2023/04/30 01:50:43;;;;;;;3.63;1.85;;;8.30;99.90;;;;;;4987982;28;20042;-85
2023/04/30 01:53:15;;;;;;;1.85;1.63;;;8.30;99.90;;;;;;4970213;28;20070;-85
2023/04/30 01:55:51;;;;;;;3.92;1.48;;;8.30;99.90;;;;;;4987483;28;20030;-86
2023/04/30 01:58:18;;;;;;;3.08;1.23;;;8.30;99.90;;;;;;4987895;28;20125;-84
2023/04/30 02:00:43;;;;;;;1.08;0.95;;;8.30;99.90;;;;;;4987161;28;20038;-83
2023/04/30 02:03:09;;;;;;;5.15;2.38;;;8.30;99.90;;;;;;5002532;28;20396;-86
2023/04/30 02:05:34;;;;;;;4.75;1.45;;;8.30;99.90;;;;;;4987061;28;20046;-85
2023/04/30 02:08:00;;;;;;;3.03;1.08;;;8.30;99.90;;;;;;4987400;28;20085;-85
2023/04/30 02:10:26;;;;;;;2.30;1.55;;;8.30;99.90;;;;;;4987418;28;20073;-82
2023/04/30 02:12:52;;;;;;;3.88;1.40;;;8.30;99.90;;;;;;4987731;28;20133;-85
2023/04/30 02:15:18;;;;;;;3.97;1.40;;;8.30;99.90;;;;;;4986946;28;20039;-84
2023/04/30 02:17:44;;;;;;;2.10;1.27;;;8.30;99.90;;;;;;4987337;28;20397;-85
2023/04/30 02:20:10;;;;;;;2.63;2.30;;;8.30;99.90;;;;;;5002329;28;20432;-85
2023/04/30 02:22:36;;;;;;;4.10;1.45;;;8.30;99.90;;;;;;4985545;28;20043;-85
2023/04/30 02:25:02;;;;;;;1.95;1.55;;;8.30;99.90;;;;;;4987175;28;20041;-82
2023/04/30 02:27:30;;;;;;;5.22;1.90;;;8.30;99.90;;;;;;4986261;28;20058;-83
2023/04/30 02:29:56;;;;;;;1.85;1.38;;;8.30;99.90;;;;;;4986380;28;20038;-84
2023/04/30 02:32:21;;;;;;;7.35;2.38;;;8.30;99.90;;;;;;4986465;28;20104;-83
2023/04/30 02:34:47;;;;;;;2.25;1.55;;;8.30;99.90;;;;;;4985871;28;20485;-85
2023/04/30 02:37:13;;;;;;;1.77;1.50;;;8.30;99.90;;;;;;4986491;28;20057;-85
2023/04/30 02:39:41;;;;;;;5.47;1.40;;;8.30;99.90;;;;;;4987003;28;20031;-84
2023/04/30 02:42:07;;;;;;;3.15;1.05;;;8.30;99.90;;;;;;4986976;28;20046;-84
2023/04/30 02:44:34;;;;;;;2.38;0.90;;;8.30;99.90;;;;;;4986219;28;20046;-85
2023/04/30 02:47:00;;;;;;;1.92;1.63;;;8.30;99.90;;;;;;5001799;28;20105;-84
2023/04/30 02:49:26;;;;;;;2.50;1.70;;;8.30;99.90;;;;;;4985707;28;20086;-84
2023/04/30 02:51:52;;;;;;;4.45;1.90;;;8.30;99.90;;;;;;4985653;28;20039;-86
2023/04/30 02:54:18;;;;;;;6.00;1.20;;;8.30;99.90;;;;;;4986082;28;20038;-85
2023/04/30 02:56:44;;;;;;;1.58;1.13;;;8.30;99.90;;;;;;4986432;28;20046;-85
2023/04/30 02:59:10;;;;;;;1.92;1.33;;;8.30;99.90;;;;;;4985577;28;20233;-83
2023/04/30 03:01:35;;;;;;;3.85;1.55;;;8.30;99.90;;;;;;4985584;28;20046;-84
2023/04/30 03:04:04;;;;;;;2.20;1.85;;;8.20;99.90;;;;;;4986385;28;20472;-84
2023/04/30 03:06:31;;;;;;;1.92;1.17;;;8.20;99.90;;;;;;4986594;28;20077;-84
2023/04/30 03:08:56;;;;;;;2.95;1.50;;;8.20;99.90;;;;;;4986787;28;20046;-86
2023/04/30 03:11:22;;;;;;;3.00;1.67;;;8.20;99.90;;;;;;4986156;28;20045;-84
2023/04/30 03:13:51;;;;;;;1.60;0.93;;;8.20;99.90;;;;;;4985999;28;20038;-85
2023/04/30 03:16:18;;;;;;;1.48;1.35;;;8.10;99.90;;;;;;4983920;28;20057;-85
2023/04/30 03:18:44;;;;;;;3.40;1.30;;;8.10;99.90;;;;;;4984830;28;20428;-84
2023/04/30 03:21:10;;;;;;;6.30;1.25;;;8.10;99.90;;;;;;4986179;28;20046;-82
2023/04/30 03:23:35;;;;;;;2.15;1.65;;;8.00;99.90;;;;;;4986671;28;20512;-85
2023/04/30 03:26:01;;;;;;;7.60;2.80;;;8.00;99.90;;;;;;4985592;28;20046;-85
2023/04/30 03:28:27;;;;;;;2.05;1.67;;;7.90;99.90;;;;;;4969332;28;20050;-86
2023/04/30 03:30:52;;;;;;;2.55;2.35;;;7.90;99.90;;;;;;4984554;28;20034;-86
2023/04/30 03:33:18;;;;;;;4.97;2.08;;;7.90;99.90;;;;;;4985854;28;20149;-81
2023/04/30 03:35:44;;;;;;;5.78;2.60;;;7.80;99.90;;;;;;4984719;28;20136;-84
2023/04/30 03:38:10;;;;;;;3.25;1.45;;;7.80;99.90;;;;;;4968469;28;20101;-85
2023/04/30 03:40:35;;;;;;;3.15;1.48;;;7.70;99.90;;;;;;4985729;28;20050;-84
2023/04/30 03:43:01;;;;;;;3.15;1.98;;;7.70;99.90;;;;;;4986095;28;20053;-85
2023/04/30 03:45:26;;;;;;;1.83;1.65;;;7.70;99.90;;;;;;4966964;28;20049;-85
2023/04/30 03:47:52;;;;;;;3.17;1.42;;;7.60;99.90;;;;;;4985341;28;20417;-81
2023/04/30 03:50:18;;;;;;;3.42;0.80;;;7.60;99.90;;;;;;4985880;28;20035;-84
2023/04/30 03:52:44;;;;;;;2.28;1.13;;;7.60;99.90;;;;;;4984509;28;20088;-85
2023/04/30 03:55:11;;;;;;;3.10;1.55;;;7.60;99.90;;;;;;4985500;28;20046;-85
2023/04/30 03:57:37;;;;;;;2.13;1.15;;;7.50;99.90;;;;;;4985478;28;20448;-83
2023/04/30 04:00:06;;;;;;;1.80;1.17;;;7.50;99.90;;;;;;4984382;28;20246;-82
2023/04/30 04:02:32;;;;;;;1.55;1.10;;;7.50;99.90;;;;;;4985112;28;20045;-86
2023/04/30 04:04:58;;;;;;;2.55;1.48;;;7.50;99.90;;;;;;4983259;28;20058;-85
2023/04/30 04:07:24;;;;;;;3.25;1.20;;;7.40;99.90;;;;;;4983900;28;20080;-84
2023/04/30 04:09:49;;;;;;;1.45;1.35;;;7.40;99.90;;;;;;4985135;28;20059;-83
2023/04/30 04:12:15;;;;;;;3.53;1.00;;;7.40;99.90;;;;;;4983732;28;20322;-84
2023/04/30 04:14:40;;;;;;;4.43;1.83;;;7.40;99.90;;;;;;4983883;28;20042;-85
2023/04/30 04:17:07;;;;;;;7.10;1.73;;;7.40;99.90;;;;;;4984874;28;20096;-81
2023/04/30 04:19:32;;;;;;;3.10;1.35;;;7.40;99.90;;;;;;4985215;28;20118;-85
2023/04/30 04:21:58;;;;;;;2.15;1.50;;;7.40;99.90;;;;;;4983422;28;20470;-85
2023/04/30 04:24:24;;;;;;;2.28;1.02;;;7.40;99.90;;;;;;4985081;28;20397;-84
2023/04/30 04:26:50;;;;;;;3.97;1.55;;;7.40;99.90;;;;;;4984886;28;20052;-85
2023/04/30 04:29:16;;;;;;;9.88;2.17;;;7.40;99.90;;;;;;4983145;28;20034;-83
2023/04/30 04:31:42;;;;;;;1.55;1.45;;;7.40;99.90;;;;;;4984905;28;20046;-85
2023/04/30 04:34:07;;;;;;;2.28;1.58;;;7.40;99.90;;;;;;4984778;28;20409;-83
2023/04/30 04:36:33;;;;;;;1.48;1.35;;;7.30;99.90;;;;;;4967249;28;20034;-85
2023/04/30 04:39:02;;;;;;;2.08;1.42;;;7.30;99.90;;;;;;4983212;28;20088;-84
2023/04/30 04:41:32;;;;;;;2.58;1.77;;;7.40;99.90;;;;;;4966970;28;20140;-84
2023/04/30 04:44:02;;;;;;;1.90;1.10;;;7.30;99.90;;;;;;4984561;28;20050;-81
2023/04/30 04:46:28;;;;;;;4.25;0.85;;;7.30;99.90;;;;;;4983363;28;20050;-85
2023/04/30 04:48:54;;;;;;;6.07;1.27;;;7.30;99.90;;;;;;4984369;28;20049;-85
2023/04/30 04:51:20;;;;;;;3.05;1.00;;;7.30;99.90;;;;;;4984116;28;20042;-84
2023/04/30 04:53:46;;;;;;;1.98;1.40;;;7.30;99.90;;;;;;4982804;28;20039;-83
2023/04/30 04:56:12;;;;;;;3.05;1.95;;;7.30;99.90;;;;;;4983567;28;20050;-85
2023/04/30 04:58:38;;;;;;;3.40;1.10;;;7.30;99.90;;;;;;4983327;28;20128;-84
2023/04/30 05:01:04;;;;;;;5.28;1.63;;;7.30;99.90;;;;;;4983660;28;20038;-83
2023/04/30 05:03:32;;;;;;;1.40;1.30;;;7.30;99.90;;;;;;4984467;28;20089;-85
2023/04/30 05:05:58;;;;;;;6.72;2.83;;;7.30;99.90;;;;;;4983574;28;20050;-81
2023/04/30 05:08:23;;;;;;;1.70;1.10;;;7.30;99.90;;;;;;4983979;28;20088;-85
2023/04/30 05:10:49;;;;;;;9.30;3.15;;;7.40;99.90;;;;;;4984105;28;20050;-84
2023/04/30 05:13:15;;;;;;;2.05;1.00;;;7.50;99.90;;;;;;4983042;28;20046;-85
2023/04/30 05:15:41;;;;;;;5.30;1.30;;;7.40;99.90;;;;;;4998286;28;20045;-86
2023/04/30 05:18:06;;;;;;;1.48;1.25;;;7.50;99.90;;;;;;4982903;28;20034;-81
2023/04/30 05:20:32;;;;;;;2.72;1.30;;;7.50;99.90;;;;;;4984273;28;20042;-84
2023/04/30 05:22:57;;;;;;;1.63;1.30;;;7.50;99.90;;;;;;4983983;28;20520;-85
2023/04/30 05:25:23;;;;;;;5.35;1.65;;;7.60;99.90;;;;;;4982870;28;20034;-84
2023/04/30 05:27:49;;;;;;;3.35;1.60;;;7.60;99.90;;;;;;4999030;28;20049;-86
2023/04/30 05:30:14;;;;;;;1.27;1.13;;;7.70;99.90;;;;;;4982769;28;20042;-85
2023/04/30 05:32:41;;;;;;;2.13;1.05;;;7.70;99.90;;;;;;4965276;28;20077;-84
2023/04/30 05:35:07;;;;;;;2.97;1.35;;;7.80;99.90;;;;;;4983752;28;20525;-85
2023/04/30 05:37:33;;;;;;;4.60;2.17;;;7.80;99.90;;;;;;4982657;28;20052;-84
2023/04/30 05:39:58;;;;;;;3.33;1.55;;;7.80;99.90;;;;;;4982113;28;20046;-85
2023/04/30 05:42:24;;;;;;;9.45;2.60;;;7.90;99.90;;;;;;4965888;28;20085;-84
2023/04/30 05:44:50;;;;;;;2.90;1.70;;;7.90;99.90;;;;;;4981266;28;20112;-84
2023/04/30 05:47:15;;;;;;;3.42;2.15;;;7.90;99.90;;;;;;4982314;28;20061;-83
2023/04/30 05:49:41;;;;;;;3.63;1.27;;;8.00;99.90;;;;;;4983186;28;20262;-84
2023/04/30 05:52:06;;;;;;;2.83;1.40;;;8.00;99.90;;;;;;4983525;28;20359;-84
2023/04/30 05:54:32;;;;;;;3.50;1.30;;;8.00;99.90;;;;;;4983201;28;20420;-80
2023/04/30 05:56:58;;;;;;;2.63;1.92;;;8.10;99.90;;;;;;4982835;28;20056;-85
2023/04/30 05:59:24;;;;;;;1.55;1.35;;;8.10;99.90;;;;;;4982208;28;20049;-84
2023/04/30 06:01:51;;;;;;;2.05;1.75;;;8.20;99.90;;;;;;4983214;28;20052;-84
2023/04/30 06:04:17;;;;;;;5.07;2.33;;;8.20;99.90;;;;;;4981277;28;20085;-80
2023/04/30 06:06:43;;;;;;;1.00;0.80;;;8.20;99.90;;;;;;4983176;28;20046;-83
2023/04/30 06:09:09;;;;;;;5.10;1.98;;;8.20;99.90;;;;;;4983518;28;20052;-83
2023/04/30 06:11:36;;;;;;;1.58;0.90;;;8.30;99.90;;;;;;4983232;28;20084;-85
2023/04/30 06:14:03;;;;;;;1.75;1.23;;;8.30;99.90;;;;;;4981793;28;20113;-81
2023/04/30 06:16:28;;;;;;;5.68;1.65;;;8.30;99.90;;;;;;4982771;28;20042;-84
2023/04/30 06:18:54;;;;;;;3.33;1.33;;;8.40;99.90;;;;;;4986447;28;20042;-83
2023/04/30 06:21:19;;;;;;;3.72;1.50;;;8.40;99.90;;;;;;4985217;28;20038;-85
2023/04/30 06:23:45;;;;;;;7.57;2.75;;;8.40;99.90;;;;;;4985805;28;20050;-84
2023/04/30 06:26:13;;;;;;;2.30;1.40;;;8.50;99.90;;;;;;4985531;28;20335;-85
2023/04/30 06:28:39;;;;;;;4.22;1.67;;;8.50;99.90;;;;;;4969358;28;20113;-83
2023/04/30 06:31:05;;;;;;;4.75;1.88;;;8.60;99.90;;;;;;4985505;28;20448;-86
2023/04/30 06:33:30;;;;;;;5.70;2.08;;;8.60;99.90;;;;;;4986196;28;20042;-83
2023/04/30 06:35:56;;;;;;;3.00;1.35;;;8.60;99.90;;;;;;4987393;28;20049;-85
2023/04/30 06:38:22;;;;;;;2.53;1.60;;;8.70;99.90;;;;;;4986680;28;20541;-86
2023/04/30 06:40:47;;;;;;;5.63;1.58;;;8.70;99.90;;;;;;4986177;28;20047;-85
2023/04/30 06:43:13;;;;;;;4.57;2.17;;;8.70;99.90;;;;;;4985830;28;20042;-84
2023/04/30 06:45:39;;;;;;;2.00;1.90;;;8.80;99.90;;;;;;4985919;28;20046;-85
2023/04/30 06:48:05;;;;;;;4.35;2.42;;;8.80;99.90;;;;;;4986782;28;20046;-82
2023/04/30 06:50:30;;;;;;;2.22;1.45;;;8.80;99.90;;;;;;4987025;28;20238;-84
2023/04/30 06:52:56;;;;;;;5.50;1.95;;;8.90;99.90;;;;;;4986441;28;20555;-85
2023/04/30 06:55:22;;;;;;;2.38;1.38;;;8.90;99.90;;;;;;4985133;28;20045;-84
2023/04/30 06:57:47;;;;;;;2.08;1.58;;;8.90;99.90;;;;;;4986317;28;20288;-85
2023/04/30 07:00:16;;;;;;;2.80;1.70;;;9.00;99.90;;;;;;4986453;28;20040;-85
2023/04/30 07:02:42;;;;;;;1.42;1.00;;;9.00;99.90;;;;;;4985721;28;20104;-84
2023/04/30 07:05:08;;;;;;;8.32;1.73;;;9.10;99.90;;;;;;4985677;28;20061;-85
2023/04/30 07:07:34;;;;;;;2.17;1.02;;;9.10;99.90;;;;;;4985978;28;20170;-82
2023/04/30 07:09:59;;;;;;;3.30;1.30;;;9.20;99.90;;;;;;4986378;28;20117;-85
2023/04/30 07:12:25;;;;;;;1.35;1.20;;;9.20;99.90;;;;;;4985892;28;20105;-86
2023/04/30 07:14:52;;;;;;;3.72;1.35;;;9.30;99.90;;;;;;4985364;28;20472;-86
2023/04/30 07:17:17;;;;;;;8.82;2.42;;;9.30;99.90;;;;;;4985081;28;20038;-84
2023/04/30 07:19:43;;;;;;;3.13;1.67;;;9.40;99.90;;;;;;4984500;28;20512;-86
2023/04/30 07:22:09;;;;;;;2.35;1.42;;;9.40;99.90;;;;;;4984859;28;20046;-87
2023/04/30 07:24:34;;;;;;;2.45;1.25;;;9.50;99.90;;;;;;4985560;28;21198;-84
2023/04/30 07:27:02;;;;;;;1.83;1.15;;;9.50;99.90;;;;;;4986483;28;20046;-86
2023/04/30 07:29:28;;;;;;;2.17;1.20;;;9.50;99.90;;;;;;4983972;28;20038;-86
2023/04/30 07:31:55;;;;;;;2.38;1.10;;;9.60;99.90;;;;;;4985658;28;20049;-85
2023/04/30 07:34:20;;;;;;;2.60;1.50;;;9.60;99.90;;;;;;4985868;28;20049;-84
2023/04/30 07:36:47;;;;;;;4.82;1.30;;;9.70;99.90;;;;;;4985985;28;20034;-85
2023/04/30 07:39:13;;;;;;;2.03;1.33;;;9.70;99.90;;;;;;4986483;28;20070;-87
2023/04/30 07:41:39;;;;;;;2.35;1.58;;;9.80;99.90;;;;;;4984107;28;20077;-85
2023/04/30 07:44:04;;;;;;;2.28;1.13;;;9.80;99.90;;;;;;4984891;28;20041;-86
2023/04/30 07:46:30;;;;;;;2.90;1.33;;;9.90;99.90;;;;;;4985513;28;20129;-84
2023/04/30 07:48:56;;;;;;;2.05;1.15;;;9.90;99.90;;;;;;4986475;28;20121;-85
2023/04/30 07:51:22;;;;;;;4.07;2.30;;;10.10;99.90;;;;;;4967513;28;20049;-87
2023/04/30 07:53:48;;;;;;;2.55;1.30;;;10.20;99.90;;;;;;4985306;28;20042;-85
2023/04/30 07:56:13;;;;;;;3.38;1.98;;;10.20;99.90;;;;;;4985951;28;20037;-85
2023/04/30 07:58:39;;;;;;;6.10;1.70;;;10.30;99.90;;;;;;4984553;28;20034;-83
2023/04/30 08:01:05;;;;;;;2.05;1.33;;;10.30;99.90;;;;;;4986065;28;20061;-86
2023/04/30 08:03:30;;;;;;;5.65;1.50;;;10.30;99.90;;;;;;4985135;28;20146;-85
2023/04/30 08:05:56;;;;;;;15.15;2.40;;;10.40;99.90;;;;;;4983788;28;20133;-86
2023/04/30 08:08:22;;;;;;;3.38;1.50;;;10.40;99.90;;;;;;4985178;28;20043;-81
2023/04/30 08:10:47;;;;;;;4.38;1.40;;;10.40;99.90;;;;;;4984381;28;20311;-82
2023/04/30 08:13:13;;;;;;;6.03;1.42;;;10.40;99.90;;;;;;4985479;28;20116;-86
2023/04/30 08:15:39;;;;;;;2.60;1.13;;;10.40;99.90;;;;;;4984073;28;20398;-85
2023/04/30 08:18:04;;;;;;;3.03;1.50;;;10.40;99.90;;;;;;4985555;28;20396;-85
2023/04/30 08:20:31;;;;;;;1.95;1.15;;;10.40;99.90;;;;;;4999441;28;20050;-83
2023/04/30 08:22:57;;;;;;;4.93;2.35;;;10.50;99.90;;;;;;4984037;28;20066;-85
2023/04/30 08:25:23;;;;;;;2.65;1.00;;;10.50;99.90;;;;;;4985453;28;20042;-86
2023/04/30 08:27:48;;;;;;;1.67;1.13;;;10.50;99.90;;;;;;4983545;28;20070;-83
2023/04/30 08:30:14;;;;;;;3.50;1.52;;;10.60;99.90;;;;;;4984761;28;20503;-86
2023/04/30 08:32:40;;;;;;;3.30;1.02;;;10.60;99.90;;;;;;4984084;28;20532;-82
2023/04/30 08:35:07;;;;;;;1.77;1.33;;;10.70;99.90;;;;;;4984734;28;20038;-84
2023/04/30 08:37:33;;;;;;;1.52;0.90;;;10.70;99.90;;;;;;4985183;28;20512;-86
2023/04/30 08:39:58;;;;;;;1.70;1.33;;;10.80;99.90;;;;;;4983421;28;20050;-86
2023/04/30 08:42:29;;;;;;;1.10;0.93;;;10.90;99.90;;;;;;4967341;28;20123;-87
2023/04/30 08:44:55;;;;;;;3.58;1.40;;;11.00;99.90;;;;;;4984010;28;20050;-85
2023/04/30 08:47:21;;;;;;;2.53;1.65;;;10.90;99.90;;;;;;4999822;28;20588;-84
2023/04/30 08:49:47;;;;;;;5.28;1.88;;;11.00;99.90;;;;;;4983797;28;20140;-86
2023/04/30 08:52:13;;;;;;;1.10;0.60;;;11.00;99.90;;;;;;4982637;28;20047;-84
2023/04/30 08:54:39;;;;;;;2.38;0.70;;;11.10;99.90;;;;;;4984792;28;20116;-86
2023/04/30 08:57:05;;;;;;;3.28;1.83;;;11.10;99.90;;;;;;4983653;28;20038;-86
2023/04/30 08:59:30;;;;;;;6.15;1.40;;;11.10;99.90;;;;;;4983671;28;20264;-85
2023/04/30 09:01:58;;;;;;;2.50;1.38;;;11.20;99.90;;;;;;4984476;28;20038;-86
2023/04/30 09:04:24;;;;;;;4.18;1.45;;;11.20;99.90;;;;;;4983330;28;20105;-84
2023/04/30 09:06:52;;;;;;;0.82;0.68;;;11.30;99.90;;;;;;4985373;28;20064;-85
2023/04/30 09:09:18;;;;;;;4.57;1.35;;;11.40;99.90;;;;;;4984427;28;20039;-87
2023/04/30 09:11:43;;;;;;;2.83;1.25;;;11.40;99.90;;;;;;4983990;28;20243;-84
2023/04/30 09:14:09;;;;;;;2.53;1.50;;;11.50;99.90;;;;;;4983633;28;20042;-87
2023/04/30 09:16:49;;;;;;;4.43;1.48;;;11.50;99.90;;;;;;4983947;28;20047;-85
2023/04/30 09:19:29;;;;;;;2.22;1.05;;;11.50;99.90;;;;;;4984028;28;20042;-87
2023/04/30 09:21:55;;;;;;;3.20;1.15;;;11.60;99.90;;;;;;4984442;28;20505;-85
2023/04/30 09:24:21;;;;;;;1.15;0.80;;;11.60;99.90;;;;;;4983555;28;20136;-86
2023/04/30 09:26:47;;;;;;;1.92;0.88;;;11.60;99.90;;;;;;4967471;28;20474;-83
2023/04/30 09:29:13;;;;;;;3.85;1.48;;;11.70;99.90;;;;;;4982133;28;20054;-86
2023/04/30 09:31:43;;;;;;;3.15;1.98;;;11.80;99.90;;;;;;4983909;28;20496;-83
2023/04/30 09:34:09;;;;;;;1.40;0.93;;;11.80;99.90;;;;;;4983360;28;20456;-82
2023/04/30 09:36:35;;;;;;;3.13;1.02;;;11.80;99.90;;;;;;4982660;28;20046;-86
2023/04/30 09:39:12;;;;;;;7.97;1.92;;;11.70;99.90;;;;;;4984307;28;20307;-85
2023/04/30 09:41:38;;;;;;;4.05;1.42;;;11.80;99.90;;;;;;4983468;28;20501;-84
2023/04/30 09:44:04;;;;;;;2.97;1.25;;;11.80;99.90;;;;;;4983066;28;20132;-87
2023/04/30 09:46:37;;;;;;;3.25;0.90;;;11.80;99.90;;;;;;4984263;28;20397;-85
2023/04/30 09:49:06;;;;;;;1.85;1.05;;;11.80;99.90;;;;;;4983918;28;20123;-85
2023/04/30 09:51:31;;;;;;;3.35;1.23;;;11.80;99.90;;;;;;4984075;28;20046;-81
2023/04/30 09:53:57;;;;;;;1.35;0.80;;;11.80;99.90;;;;;;4986031;28;20138;-86
2023/04/30 09:56:25;;;;;;;1.88;1.13;;;11.90;99.90;;;;;;4988248;28;20046;-86
2023/04/30 09:58:55;;;;;;;2.20;1.40;;;11.90;99.90;;;;;;4987413;28;20214;-84
2023/04/30 10:01:23;;;;;;;2.70;1.73;;;11.90;99.90;;;;;;4988594;28;20119;-83
2023/04/30 10:03:49;;;;;;;2.47;1.48;;;12.00;99.90;;;;;;4985772;28;20064;-85
2023/04/30 10:06:18;;;;;;;4.32;1.42;;;12.00;99.90;;;;;;4986826;28;20546;-84
2023/04/30 10:08:48;;;;;;;3.60;1.17;;;12.00;99.90;;;;;;4986262;28;20358;-83
2023/04/30 10:11:18;;;;;;;9.25;1.80;;;12.10;99.90;;;;;;4986080;28;20073;-83
2023/04/30 10:13:51;;;;;;;1.33;1.08;;;12.10;99.90;;;;;;4969095;28;20092;-84
2023/04/30 10:16:31;;;;;;;2.58;1.00;;;12.10;99.90;;;;;;4986678;28;20049;-84
2023/04/30 10:19:01;;;;;;;2.05;1.17;;;12.20;99.90;;;;;;4987337;28;20093;-82
2023/04/30 10:21:27;;;;;;;3.03;1.15;;;12.10;99.90;;;;;;4986602;28;20042;-85
2023/04/30 10:23:54;;;;;;;3.50;0.90;;;12.20;99.90;;;;;;4986667;28;20074;-83
2023/04/30 10:26:20;;;;;;;3.95;0.98;;;12.20;99.90;;;;;;4987224;28;20050;-83
2023/04/30 10:28:49;;;;;;;3.47;1.08;;;12.30;99.90;;;;;;4985507;28;20465;-85
2023/04/30 10:31:18;;;;;;;4.22;1.67;;;12.30;99.90;;;;;;4985286;28;20071;-82
2023/04/30 10:33:48;;;;;;;2.88;1.13;;;12.30;99.90;;;;;;4986943;28;20145;-82
2023/04/30 10:36:23;;;;;;;1.42;0.90;;;12.30;99.90;;;;;;4986836;28;20125;-85
2023/04/30 10:38:49;;;;;;;2.15;1.15;;;12.40;99.90;;;;;;4987227;28;20043;-83
2023/04/30 10:41:18;;;;;;;0.60;0.60;;;12.40;99.90;;;;;;4985794;28;20496;-82
2023/04/30 10:43:46;;;;;;;1.50;0.60;;;12.40;99.90;;;;;;4984654;28;20369;-83
2023/04/30 10:46:24;;;;;;;2.05;1.02;;;12.50;99.90;;;;;;4986622;28;20452;-84
2023/04/30 10:48:53;;;;;;;1.42;0.98;;;12.50;99.90;;;;;;4986583;28;20042;-81
2023/04/30 10:51:19;;;;;;;1.65;0.85;;;12.50;99.90;;;;;;4986480;28;20073;-83
2023/04/30 10:53:50;;;;;;;1.55;1.38;;;12.60;99.90;;;;;;4985423;28;20050;-83
2023/04/30 10:56:30;;;;;;;2.25;0.98;;;12.60;99.90;;;;;;4986549;28;20045;-84
2023/04/30 10:59:01;;;;;;;3.15;1.13;;;12.60;99.90;;;;;;4985277;28;20069;-84
2023/04/30 11:01:28;;;;;;;1.25;0.60;;;12.70;99.90;;;;;;4986115;28;20038;-84
2023/04/30 11:04:23;;;;;;;5.90;1.45;;;12.70;99.90;;;;;;4984956;28;20782;-81
2023/04/30 11:06:51;;;;;;;1.70;1.17;;;12.70;99.90;;;;;;4985595;28;20149;-82
2023/04/30 11:09:17;;;;;;;1.27;0.90;;;12.70;99.90;;;;;;4986180;28;20124;-84
2023/04/30 11:11:49;;;;;;;1.13;1.02;;;12.70;99.90;;;;;;4984487;28;20089;-85
2023/04/30 11:14:19;;;;;;;0.75;0.70;;;12.80;99.90;;;;;;4984923;28;20113;-84
2023/04/30 11:16:48;;;;;;;1.63;1.33;;;12.80;99.90;;;;;;4985532;28;20120;-83
2023/04/30 11:19:14;;;;;;;0.68;0.65;;;12.80;99.90;;;;;;4986362;28;20168;-85
2023/04/30 11:22:03;;;;;;;1.42;1.10;;;12.90;99.90;;;;;;4984424;28;20489;-84
2023/04/30 11:24:51;;;;;;;2.90;1.15;;;12.90;99.90;;;;;;4980653;28;20046;-81
2023/04/30 11:27:22;;;;;;;1.20;0.70;;;13.00;99.90;;;;;;4985588;28;20472;-83
2023/04/30 11:29:49;;;;;;;2.78;1.00;;;13.00;99.90;;;;;;4985070;28;20516;-83
2023/04/30 11:32:16;;;;;;;1.20;1.08;;;13.00;99.90;;;;;;4984660;28;20045;-85
2023/04/30 11:34:45;;;;;;;1.55;0.80;;;13.00;99.90;;;;;;4986156;28;20116;-83
2023/04/30 11:37:37;;;;;;;0.70;0.70;;;13.10;99.90;;;;;;4984569;28;20043;-81
2023/04/30 11:40:09;;;;;;;3.50;1.35;;;13.10;99.90;;;;;;4982051;28;20270;-83
2023/04/30 11:42:38;;;;;;;0.75;0.75;;;13.10;99.90;;;;;;4968309;28;20382;-85
2023/04/30 11:45:04;;;;;;;2.42;1.00;;;13.00;99.90;;;;;;4984055;28;20042;-83
2023/04/30 11:47:43;;;;;;;1.33;1.00;;;13.00;99.90;;;;;;4984240;28;20042;-84
2023/04/30 11:50:10;;;;;;;1.98;0.70;;;13.00;99.90;;;;;;4983153;28;20132;-83
2023/04/30 11:52:37;;;;;;;2.78;1.10;;;13.00;99.90;;;;;;4983997;28;20050;-83
2023/04/30 11:55:24;;;;;;;3.45;0.70;;;13.10;99.90;;;;;;4983857;28;20077;-83
2023/04/30 11:57:53;;;;;;;3.40;1.00;;;13.10;99.90;;;;;;4984883;28;20293;-83
2023/04/30 12:00:20;;;;;;;2.80;1.08;;;13.10;99.90;;;;;;4983610;28;20030;-82
2023/04/30 12:02:47;;;;;;;1.42;0.90;;;13.10;99.90;;;;;;4984077;28;20137;-86
2023/04/30 12:05:20;;;;;;;2.30;0.90;;;13.10;99.90;;;;;;4984978;28;20069;-85
2023/04/30 12:07:51;;;;;;;1.17;1.00;;;13.20;99.90;;;;;;4983100;28;20481;-83
2023/04/30 12:10:20;;;;;;;3.50;0.73;;;13.30;99.90;;;;;;4983625;28;20042;-82
2023/04/30 12:12:50;;;;;;;2.67;0.90;;;13.30;99.90;;;;;;4984924;28;20540;-84
2023/04/30 12:15:21;;;;;;;2.35;0.90;;;13.30;99.90;;;;;;4982672;28;20109;-84
2023/04/30 12:17:47;;;;;;;2.47;1.05;;;13.30;99.90;;;;;;4985213;28;20092;-86
2023/04/30 12:20:14;;;;;;;0.85;0.73;;;13.30;99.90;;;;;;4983377;28;20039;-83
2023/04/30 12:22:44;;;;;;;5.13;1.58;;;13.40;99.90;;;;;;4983427;28;20464;-82
2023/04/30 12:25:18;;;;;;;1.75;1.25;;;13.40;99.90;;;;;;4983103;28;20425;-86
2023/04/30 12:27:48;;;;;;;1.33;0.80;;;13.50;99.90;;;;;;4985068;28;20053;-85
2023/04/30 12:30:14;;;;;;;0.82;0.65;;;13.50;99.90;;;;;;4983475;28;20046;-84
2023/04/30 12:32:45;;;;;;;2.47;1.08;;;13.60;99.90;;;;;;4984884;28;20042;-82
2023/04/30 12:35:18;;;;;;;1.08;0.60;;;13.70;99.90;;;;;;4984637;28;20081;-81
2023/04/30 12:37:45;;;;;;;2.97;1.00;;;13.70;99.90;;;;;;4984497;28;20485;-81
2023/04/30 12:40:12;;;;;;;0.95;0.70;;;13.80;99.90;;;;;;4966576;28;20038;-84
2023/04/30 12:42:38;;;;;;;1.63;0.95;;;13.90;99.90;;;;;;4983016;28;20097;-84
2023/04/30 12:45:05;;;;;;;1.45;0.90;;;13.90;99.90;;;;;;4983487;28;20042;-82
2023/04/30 12:47:31;;;;;;;0.68;0.63;;;14.00;99.90;;;;;;4984424;28;20453;-83
2023/04/30 12:49:57;;;;;;;0.85;0.70;;;14.10;99.90;;;;;;4984945;28;20141;-82
2023/04/30 12:52:25;;;;;;;0.70;0.60;;;14.10;99.90;;;;;;4984244;28;20034;-84
2023/04/30 12:54:54;;;;;;;1.10;0.77;;;14.10;99.90;;;;;;4984323;28;20398;-83
2023/04/30 12:57:20;;;;;;;0.98;0.63;;;14.10;99.90;;;;;;4984342;28;20101;-83